This is the latest recevied weather packets stored in our database for station/object DL2GFH-3. If no packets are shown the sender has not sent any weather packets the latest 10 day(s).
| Time | Temp. | Humidity | Pressure | Rain* | Wind** | Luminosity | Snow |
|---|---|---|---|---|---|---|---|
| 1777522257 | 19.44° C | 21% | 1021.8 hPa | - | - | - | - |
| 1777521352 | 18.89° C | 22% | 1021.9 hPa | - | - | - | - |
| 1777520447 | 20.56° C | 20% | 1021.8 hPa | - | - | - | - |
| 1777519541 | 22.78° C | 18% | 1021.8 hPa | - | - | - | - |
| 1777518636 | 22.22° C | 19% | 1021.9 hPa | - | - | - | - |
| 1777517730 | 21.11° C | 20% | 1021.9 hPa | - | - | - | - |
| 1777516825 | 17.78° C | 24% | 1022 hPa | - | - | - | - |
| 1777515920 | 15.56° C | 26% | 1022.1 hPa | - | - | - | - |
| 1777515014 | 15.56° C | 26% | 1022.1 hPa | - | - | - | - |
| 1777514109 | 15.56° C | 26% | 1022.1 hPa | - | - | - | - |
| 1777513203 | 15.56° C | 26% | 1022 hPa | - | - | - | - |
| 1777512298 | 15.56° C | 27% | 1021.9 hPa | - | - | - | - |
| 1777511393 | 16.11° C | 26% | 1021.7 hPa | - | - | - | - |
| 1777509582 | 16.11° C | 26% | 1021.6 hPa | - | - | - | - |
| 1777508676 | 16.11° C | 26% | 1021.4 hPa | - | - | - | - |
| 1777507771 | 16.11° C | 26% | 1021.3 hPa | - | - | - | - |
| 1777506865 | 16.11° C | 26% | 1021.3 hPa | - | - | - | - |
| 1777505960 | 16.67° C | 26% | 1021.4 hPa | - | - | - | - |
| 1777505055 | 16.67° C | 26% | 1021.3 hPa | - | - | - | - |
| 1777504149 | 16.67° C | 26% | 1021.4 hPa | - | - | - | - |
| 1777503244 | 16.67° C | 26% | 1021.4 hPa | - | - | - | - |
| 1777502338 | 17.22° C | 26% | 1021.3 hPa | - | - | - | - |
| 1777500527 | 17.22° C | 26% | 1021.2 hPa | - | - | - | - |
| 1777499622 | 17.78° C | 26% | 1021.2 hPa | - | - | - | - |
| 1777498717 | 17.78° C | 26% | 1021.2 hPa | - | - | - | - |
* Rain since midnight (hover to see other rain measurements)
** Current wind speed in m/s (hover to see current wind gust speed)